Time;durP1;ratioP1;P1;durP2;ratioP2;P2;SDS_P1;SDS_P2;PMS_P1;PMS_P2;Temp;Humidity;BMP_temperature;BMP_pressure;BME280_temperature;BME280_humidity;BME280_pressure;Samples;Min_cycle;Max_cycle;Signal;HPM_P1;HPM_P2
2024/03/25 00:02:22;;;;;;;0.00;0.00;;;;;;;6.34;76.18;99462.94;6218836;22;20003;-75
2024/03/25 00:04:48;;;;;;;0.00;0.00;;;;;;;6.31;75.97;99447.16;6239792;22;20007;-76
2024/03/25 00:07:13;;;;;;;0.00;0.00;;;;;;;6.30;76.50;99445.53;6191029;22;20004;-75
2024/03/25 00:09:38;;;;;;;0.00;0.00;;;;;;;6.43;75.79;99453.19;6265101;22;20339;-73
2024/03/25 00:12:04;;;;;;;0.10;0.10;;;;;;;6.47;76.18;99450.78;6216253;22;20075;-75
2024/03/25 00:14:30;;;;;;;0.00;0.00;;;;;;;6.44;76.03;99443.97;6240073;22;20008;-75
2024/03/25 00:16:55;;;;;;;0.00;0.00;;;;;;;6.46;76.27;99428.22;6216371;22;20312;-76
2024/03/25 00:19:23;;;;;;;0.00;0.00;;;;;;;6.40;76.56;99413.00;6217860;22;20026;-76
2024/03/25 00:21:49;;;;;;;0.10;0.10;;;;;;;6.56;76.05;99432.09;6188330;22;20040;-76
2024/03/25 00:24:14;;;;;;;0.00;0.00;;;;;;;6.59;75.89;99420.69;6269030;22;20015;-74
2024/03/25 00:26:40;;;;;;;0.00;0.00;;;;;;;6.65;76.25;99414.22;6239486;22;20014;-75
2024/03/25 00:29:05;;;;;;;0.00;0.00;;;;;;;6.70;76.00;99416.13;6242032;22;20057;-75
2024/03/25 00:31:30;;;;;;;0.00;0.00;;;;;;;6.75;76.09;99416.97;6191764;22;20068;-77
2024/03/25 00:33:56;;;;;;;0.00;0.00;;;;;;;6.75;76.40;99408.81;6244128;22;20000;-76
2024/03/25 00:36:30;;;;;;;0.00;0.00;;;;;;;6.75;76.40;99394.41;6245513;22;20057;-75
2024/03/25 00:39:03;;;;;;;;;;;;;;;6.92;76.23;99407.78;6243901;22;20008;-76
2024/03/25 00:41:28;;;;;;;0.00;0.00;;;;;;;6.84;76.20;99389.28;6273184;22;19911;-76
2024/03/25 00:43:56;;;;;;;0.00;0.00;;;;;;;6.94;75.94;99401.00;6192280;22;20702;-76
2024/03/25 00:46:22;;;;;;;0.00;0.00;;;;;;;6.96;75.94;99392.56;6271738;22;20355;-76
2024/03/25 00:48:47;;;;;;;0.00;0.00;;;;;;;6.96;76.46;99382.50;6241348;22;20004;-76
2024/03/25 00:51:13;;;;;;;0.00;0.00;;;;;;;6.93;75.77;99371.38;6244948;22;20075;-77
2024/03/25 00:53:38;;;;;;;0.00;0.00;;;;;;;6.69;76.78;99339.25;6245023;22;20380;-76
2024/03/25 00:56:04;;;;;;;0.00;0.00;;;;;;;6.98;76.42;99380.34;6241062;22;20019;-75
2024/03/25 00:58:29;;;;;;;0.00;0.00;;;;;;;6.93;76.20;99371.38;6272686;22;20004;-77
2024/03/25 01:00:55;;;;;;;0.00;0.00;;;;;;;7.05;75.78;99385.53;6243287;22;20027;-75
2024/03/25 01:03:21;;;;;;;0.10;0.10;;;;;;;7.07;76.01;99369.78;6218469;22;20015;-75
2024/03/25 01:05:46;;;;;;;0.00;0.00;;;;;;;7.09;75.32;99362.16;6220984;22;20058;-74
2024/03/25 01:08:13;;;;;;;0.00;0.00;;;;;;;7.08;75.90;99359.72;6215550;22;20086;-72
2024/03/25 01:10:39;;;;;;;0.00;0.00;;;;;;;7.07;75.28;99342.59;6244837;22;20483;-74
2024/03/25 01:13:04;;;;;;;0.00;0.00;;;;;;;7.12;75.60;99348.03;6215550;22;20012;-73
2024/03/25 01:15:29;;;;;;;0.00;0.00;;;;;;;7.09;75.25;99343.13;6243977;22;20008;-76
2024/03/25 01:17:55;;;;;;;0.00;0.00;;;;;;;7.06;75.54;99334.72;6216767;22;20423;-75
2024/03/25 01:20:20;;;;;;;0.00;0.00;;;;;;;7.07;75.00;99334.44;6191293;22;20057;-74
2024/03/25 01:22:45;;;;;;;0.00;0.00;;;;;;;7.09;75.04;99343.13;6193711;22;20038;-75
2024/03/25 01:25:11;;;;;;;0.00;0.00;;;;;;;7.10;75.00;99333.91;6239730;22;20022;-77
2024/03/25 01:27:36;;;;;;;0.00;0.00;;;;;;;7.10;75.27;99339.34;6220388;22;20430;-77
2024/03/25 01:30:04;;;;;;;0.00;0.00;;;;;;;7.00;74.93;99317.56;6267116;22;20079;-74
2024/03/25 01:32:30;;;;;;;0.00;0.00;;;;;;;7.11;74.47;99326.53;6243935;22;20094;-75
2024/03/25 01:34:55;;;;;;;0.00;0.00;;;;;;;7.15;74.57;99328.47;6268085;22;20069;-75
2024/03/25 01:37:21;;;;;;;0.00;0.00;;;;;;;7.12;75.03;99317.31;6240933;22;20004;-76
2024/03/25 01:39:46;;;;;;;0.00;0.00;;;;;;;7.09;74.62;99305.06;6245001;22;20011;-76
2024/03/25 01:42:13;;;;;;;0.00;0.00;;;;;;;7.02;74.40;99284.69;6237879;22;20023;-74
2024/03/25 01:44:39;;;;;;;0.00;0.00;;;;;;;7.00;74.71;99276.81;6244806;22;20027;-76
2024/03/25 01:47:04;;;;;;;0.00;0.00;;;;;;;6.99;74.87;99286.03;6243823;22;20069;-74
2024/03/25 01:49:30;;;;;;;0.00;0.00;;;;;;;6.96;75.42;99264.84;6244591;22;20035;-77
2024/03/25 01:51:56;;;;;;;0.00;0.00;;;;;;;7.12;74.53;99288.22;6219420;22;20035;-76
2024/03/25 01:54:24;;;;;;;0.00;0.00;;;;;;;7.14;75.46;99283.34;6241110;22;20008;-75
2024/03/25 01:56:50;;;;;;;0.00;0.00;;;;;;;7.15;74.83;99276.81;6271145;22;20038;-76
2024/03/25 01:59:19;;;;;;;0.00;0.00;;;;;;;7.08;74.91;99264.56;6269996;22;19999;-76
2024/03/25 02:01:46;;;;;;;0.00;0.00;;;;;;;7.10;75.51;99265.94;6270149;22;20070;-75
2024/03/25 02:04:12;;;;;;;0.00;0.00;;;;;;;7.15;75.82;99265.94;6216791;22;20008;-74
2024/03/25 02:06:40;;;;;;;0.00;0.00;;;;;;;6.96;75.77;99234.94;6191924;22;20082;-74
2024/03/25 02:09:05;;;;;;;0.00;0.00;;;;;;;7.12;75.76;99252.88;6244824;22;20706;-75
2024/03/25 02:11:32;;;;;;;0.00;0.00;;;;;;;7.14;76.18;99242.56;6239535;22;20023;-75
2024/03/25 02:13:57;;;;;;;0.00;0.00;;;;;;;7.14;76.58;99250.72;6271013;22;20007;-75
2024/03/25 02:16:23;;;;;;;0.00;0.00;;;;;;;7.15;77.08;99244.19;6240574;22;20020;-74
2024/03/25 02:18:48;;;;;;;0.00;0.00;;;;;;;7.12;77.30;99233.84;6216149;22;20414;-76
2024/03/25 02:21:13;;;;;;;0.00;0.00;;;;;;;7.08;77.78;99235.50;6243846;22;20055;-75
2024/03/25 02:23:42;;;;;;;0.10;0.10;;;;;;;7.10;78.63;99233.31;6215850;22;20101;-75
2024/03/25 02:26:07;;;;;;;0.00;0.00;;;;;;;7.05;78.87;99219.69;6271509;22;20003;-74
2024/03/25 02:28:33;;;;;;;0.00;0.00;;;;;;;7.08;79.22;99226.50;6192059;22;20058;-74
2024/03/25 02:30:58;;;;;;;0.00;0.00;;;;;;;7.04;79.44;99215.38;6190302;22;20438;-75
2024/03/25 02:33:23;;;;;;;0.00;0.00;;;;;;;7.04;80.51;99217.25;6218441;22;20031;-75
2024/03/25 02:35:49;;;;;;;0.00;0.00;;;;;;;6.97;80.50;99210.19;6188073;22;20392;-75
2024/03/25 02:38:17;;;;;;;0.00;0.00;;;;;;;7.01;81.18;99210.47;6188505;22;20007;-76
2024/03/25 02:40:43;;;;;;;0.00;0.00;;;;;;;6.97;81.28;99206.69;6216991;22;20039;-73
2024/03/25 02:43:10;;;;;;;0.00;0.00;;;;;;;6.96;82.61;99197.69;6214946;22;20000;-72
2024/03/25 02:45:35;;;;;;;0.00;0.00;;;;;;;6.95;83.69;99195.25;6241142;22;20546;-73
2024/03/25 02:48:01;;;;;;;0.00;0.00;;;;;;;6.85;84.70;99189.81;6213621;22;20018;-73
2024/03/25 02:50:26;;;;;;;0.00;0.00;;;;;;;6.88;85.21;99181.09;6241344;22;20319;-72
2024/03/25 02:52:55;;;;;;;0.00;0.00;;;;;;;6.88;85.76;99189.25;6242306;22;20027;-74
2024/03/25 02:55:20;;;;;;;0.00;0.00;;;;;;;6.82;86.96;99170.25;6269452;22;20430;-73
2024/03/25 02:57:46;;;;;;;0.00;0.00;;;;;;;6.85;87.18;99170.78;6217223;22;20039;-73
2024/03/25 03:00:12;;;;;;;0.00;0.00;;;;;;;6.74;88.53;99151.78;6240980;22;20381;-74
2024/03/25 03:02:38;;;;;;;0.00;0.00;;;;;;;6.82;89.07;99170.25;6193970;22;20008;-74
2024/03/25 03:05:05;;;;;;;0.00;0.00;;;;;;;6.76;90.98;99163.19;6241017;22;20115;-74
2024/03/25 03:07:30;;;;;;;0.00;0.00;;;;;;;6.67;91.64;99158.56;6218034;22;20095;-74
2024/03/25 03:09:56;;;;;;;0.10;0.10;;;;;;;6.56;92.25;99144.19;6240783;22;21071;-73
2024/03/25 03:12:21;;;;;;;0.00;0.00;;;;;;;6.56;94.44;99144.19;6218173;22;20461;-74
2024/03/25 03:14:46;;;;;;;0.00;0.00;;;;;;;6.54;95.63;99140.91;6192447;22;20090;-73
2024/03/25 03:17:12;;;;;;;0.00;0.00;;;;;;;6.44;96.03;99126.25;6192089;22;20003;-74
2024/03/25 03:19:39;;;;;;;0.00;0.00;;;;;;;6.47;96.45;99125.69;6245411;22;20007;-75
2024/03/25 03:22:05;;;;;;;0.00;0.00;;;;;;;6.49;97.98;99135.47;6191420;22;20062;-74
2024/03/25 03:24:30;;;;;;;0.00;0.00;;;;;;;6.42;98.04;99122.97;6243631;22;20011;-74
2024/03/25 03:26:55;;;;;;;0.00;0.00;;;;;;;6.44;99.35;99120.81;6243459;22;20034;-73
2024/03/25 03:29:21;;;;;;;0.00;0.00;;;;;;;6.53;99.42;99123.00;6242219;22;20346;-74
2024/03/25 03:31:46;;;;;;;0.00;0.00;;;;;;;6.50;100.00;99113.47;6242196;22;20087;-72
2024/03/25 03:34:11;;;;;;;0.00;0.00;;;;;;;6.46;100.00;99109.66;6215679;22;20082;-73
2024/03/25 03:36:37;;;;;;;0.00;0.00;;;;;;;6.43;100.00;99097.44;6272930;22;20014;-74
2024/03/25 03:39:05;;;;;;;0.00;0.00;;;;;;;6.54;100.00;99102.88;6242305;22;20034;-74
2024/03/25 03:41:30;;;;;;;0.00;0.00;;;;;;;6.57;100.00;99099.63;6245192;22;20007;-74
2024/03/25 03:43:56;;;;;;;0.00;0.00;;;;;;;6.63;100.00;99101.25;6193796;22;20465;-74
2024/03/25 03:46:21;;;;;;;0.00;0.00;;;;;;;6.65;100.00;99090.94;6244061;22;20008;-73
2024/03/25 03:48:49;;;;;;;0.00;0.00;;;;;;;6.71;100.00;99092.53;6242419;22;20008;-73
2024/03/25 03:51:15;;;;;;;0.00;0.00;;;;;;;6.68;100.00;99093.09;6218470;22;20157;-74
2024/03/25 03:53:42;;;;;;;0.00;0.00;;;;;;;6.66;100.00;99078.97;6219029;22;20058;-74
2024/03/25 03:56:08;;;;;;;0.00;0.00;;;;;;;6.56;100.00;99059.97;6242126;22;20014;-74
2024/03/25 03:58:34;;;;;;;0.00;0.00;;;;;;;6.71;100.00;99070.81;6194955;22;20338;-73
2024/03/25 04:01:00;;;;;;;0.00;0.00;;;;;;;6.68;100.00;99059.69;6272362;22;20049;-74
2024/03/25 04:03:25;;;;;;;0.00;0.00;;;;;;;6.85;100.00;99076.50;6219954;22;20018;-72
2024/03/25 04:05:51;;;;;;;0.00;0.00;;;;;;;6.87;100.00;99068.09;6272234;22;20360;-74
2024/03/25 04:08:16;;;;;;;0.00;0.00;;;;;;;6.76;100.00;99051.81;6274574;22;20004;-74
2024/03/25 04:10:44;;;;;;;0.00;0.00;;;;;;;6.84;100.00;99063.19;6221142;22;20065;-73
2024/03/25 04:13:09;;;;;;;0.00;0.00;;;;;;;6.76;100.00;99046.38;6244835;22;20085;-74
2024/03/25 04:15:38;;;;;;;0.00;0.00;;;;;;;6.78;100.00;99046.91;6219370;22;20374;-73
2024/03/25 04:18:04;;;;;;;0.00;0.00;;;;;;;6.80;100.00;99044.72;6245616;22;20004;-73
2024/03/25 04:20:39;;;;;;;0.00;0.00;;;;;;;6.74;100.00;99042.28;6272504;22;20023;-73
2024/03/25 04:23:06;;;;;;;0.00;0.00;;;;;;;6.73;100.00;99041.47;6244014;22;20311;-73
2024/03/25 04:25:33;;;;;;;0.00;0.00;;;;;;;6.70;100.00;99035.78;6243403;22;20004;-74
2024/03/25 04:27:58;;;;;;;0.00;0.00;;;;;;;6.70;100.00;99025.75;6244984;22;20004;-74
2024/03/25 04:30:24;;;;;;;0.00;0.00;;;;;;;6.63;100.00;99022.50;6243365;22;20014;-74
2024/03/25 04:32:49;;;;;;;0.00;0.00;;;;;;;6.73;100.00;99030.63;6242239;22;20004;-73
2024/03/25 04:35:14;;;;;;;0.00;0.00;;;;;;;6.71;100.00;99021.91;6244948;22;20011;-73
2024/03/25 04:37:41;;;;;;;0.00;0.00;;;;;;;6.62;100.00;99005.34;6190457;22;20038;-73
2024/03/25 04:40:08;;;;;;;0.00;0.00;;;;;;;6.77;100.00;99014.56;6244631;22;20000;-74
2024/03/25 04:42:33;;;;;;;0.00;0.00;;;;;;;6.74;100.00;99013.22;6215329;22;20068;-74
2024/03/25 04:44:59;;;;;;;0.00;0.00;;;;;;;6.62;100.00;98996.41;6244200;22;20011;-74
2024/03/25 04:47:24;;;;;;;0.00;0.00;;;;;;;6.60;100.00;98996.69;6218626;22;20082;-73
2024/03/25 04:49:52;;;;;;;0.00;0.00;;;;;;;6.59;100.00;99003.19;6217759;22;20427;-75
2024/03/25 04:52:18;;;;;;;0.00;0.00;;;;;;;6.59;100.00;98997.75;6244543;22;20008;-74
2024/03/25 04:54:44;;;;;;;0.00;0.00;;;;;;;6.58;100.00;98984.47;6267490;22;20453;-73
2024/03/25 04:57:09;;;;;;;0.00;0.00;;;;;;;6.55;100.00;98991.25;6244525;22;20004;-72
2024/03/25 04:59:34;;;;;;;0.00;0.00;;;;;;;6.57;100.00;98988.25;6266219;22;20817;-74
2024/03/25 05:02:00;;;;;;;0.00;0.00;;;;;;;6.58;100.00;98979.03;6244623;22;20496;-74
2024/03/25 05:04:25;;;;;;;0.00;0.00;;;;;;;6.64;100.00;98972.47;6243400;22;20003;-74
2024/03/25 05:06:51;;;;;;;0.10;0.10;;;;;;;6.66;100.00;98978.47;6242691;22;20015;-74
2024/03/25 05:09:16;;;;;;;0.00;0.00;;;;;;;6.63;100.00;98970.88;6244172;22;20061;-75
2024/03/25 05:11:42;;;;;;;0.00;0.00;;;;;;;6.57;100.00;98967.34;6220954;22;20031;-74
2024/03/25 05:14:08;;;;;;;0.00;0.00;;;;;;;6.50;100.00;98961.41;6240595;23;20004;-74
2024/03/25 05:16:33;;;;;;;0.00;0.00;;;;;;;6.52;100.00;98963.84;6236079;23;20019;-75
2024/03/25 05:18:59;;;;;;;0.00;0.00;;;;;;;6.27;100.00;98930.22;6215270;23;20031;-74
2024/03/25 05:21:24;;;;;;;0.00;0.00;;;;;;;6.37;100.00;98946.47;6212863;23;20374;-73
2024/03/25 05:23:50;;;;;;;0.00;0.00;;;;;;;6.53;100.00;98966.28;6211565;23;20012;-74
2024/03/25 05:26:15;;;;;;;0.00;0.00;;;;;;;6.54;100.00;98972.50;6213319;23;20003;-74
2024/03/25 05:28:41;;;;;;;0.00;0.00;;;;;;;6.56;100.00;98964.91;6209793;23;20335;-74
2024/03/25 05:31:09;;;;;;;0.00;0.00;;;;;;;6.46;100.00;98942.09;6214255;23;20015;-74
2024/03/25 05:33:35;;;;;;;0.00;0.00;;;;;;;6.62;100.00;98958.38;6212045;23;20034;-74
2024/03/25 05:36:02;;;;;;;0.00;0.00;;;;;;;6.59;100.00;98958.94;6211329;23;20065;-74
2024/03/25 05:38:30;;;;;;;0.00;0.00;;;;;;;6.61;100.00;98945.88;6189449;23;20003;-74
2024/03/25 05:40:56;;;;;;;0.00;0.00;;;;;;;6.61;100.00;98962.16;6236345;23;20018;-74
2024/03/25 05:43:22;;;;;;;0.00;0.00;;;;;;;6.52;100.00;98940.19;6214338;23;20090;-74
2024/03/25 05:45:57;;;;;;;0.00;0.00;;;;;;;6.68;100.00;98961.91;6184733;23;20015;-73
2024/03/25 05:48:24;;;;;;;0.00;0.00;;;;;;;6.61;100.00;98943.16;6239868;23;20000;-74
2024/03/25 05:51:08;;;;;;;0.00;0.00;;;;;;;6.70;100.00;98948.84;6237574;23;20076;-74
2024/03/25 05:53:34;;;;;;;0.00;0.00;;;;;;;6.69;100.00;98953.47;6189489;23;20008;-74
2024/03/25 05:55:59;;;;;;;0.00;0.00;;;;;;;6.69;100.00;98953.47;6233279;23;20012;-75
2024/03/25 05:58:25;;;;;;;0.00;0.00;;;;;;;6.70;100.00;98949.66;6238548;23;20004;-75
2024/03/25 06:00:51;;;;;;;0.00;0.00;;;;;;;6.63;100.00;98933.66;6187867;23;20031;-75
2024/03/25 06:03:17;;;;;;;0.10;0.10;;;;;;;6.67;100.00;98927.66;6237470;23;20015;-75
2024/03/25 06:05:43;;;;;;;0.00;0.00;;;;;;;6.67;100.00;98933.91;6240137;23;20057;-75
2024/03/25 06:08:18;;;;;;;0.10;0.10;;;;;;;6.64;100.00;98920.88;6209799;23;20007;-73
2024/03/25 06:10:43;;;;;;;0.00;0.00;;;;;;;6.66;100.00;98920.59;6217131;22;20008;-74
2024/03/25 06:13:09;;;;;;;0.00;0.00;;;;;;;6.59;100.00;98904.59;6267668;22;20008;-74
2024/03/25 06:15:34;;;;;;;0.00;0.00;;;;;;;6.69;100.00;98907.28;6194957;22;20032;-74
2024/03/25 06:18:00;;;;;;;0.00;0.00;;;;;;;6.68;100.00;98904.84;6194979;22;20055;-74
2024/03/25 06:20:25;;;;;;;0.00;0.00;;;;;;;6.72;100.00;98909.44;6269877;22;20090;-74
2024/03/25 06:22:51;;;;;;;0.00;0.00;;;;;;;6.70;100.00;98906.22;6244096;22;20068;-74
2024/03/25 06:25:24;;;;;;;0.00;0.00;;;;;;;6.63;100.00;98906.50;6214416;22;20042;-75
2024/03/25 06:27:49;;;;;;;0.00;0.00;;;;;;;6.62;100.00;98917.63;6217743;22;20014;-74
2024/03/25 06:35:43;;;;;;;0.10;0.10;;;;;;;6.53;100.00;98889.44;6242485;22;20189;-70
2024/03/25 06:38:12;;;;;;;0.00;0.00;;;;;;;6.44;100.00;98884.56;6217890;22;19999;-71
2024/03/25 06:40:37;;;;;;;0.00;0.00;;;;;;;6.41;100.00;98874.25;6240517;22;20018;-75
2024/03/25 06:43:04;;;;;;;0.00;0.00;;;;;;;6.41;100.00;98878.84;6245289;22;20007;-73
2024/03/25 06:45:29;;;;;;;0.08;0.08;;;;;;;6.34;100.00;98883.75;6242545;22;20007;-72
2024/03/25 06:47:57;;;;;;;0.00;0.00;;;;;;;6.25;100.00;98867.22;6215959;22;20441;-72
2024/03/25 06:50:24;;;;;;;0.00;0.00;;;;;;;6.38;100.00;98926.38;6244833;22;20026;-73
2024/03/25 06:52:49;;;;;;;0.00;0.00;;;;;;;6.38;100.00;98884.84;6267819;22;20045;-74
2024/03/25 06:55:22;;;;;;;0.00;0.00;;;;;;;6.35;100.00;98878.06;6245393;22;20012;-73
2024/03/25 06:57:47;;;;;;;0.00;0.00;;;;;;;6.29;100.00;98873.72;6193110;22;20326;-73
2024/03/25 07:00:13;;;;;;;0.00;0.00;;;;;;;6.21;100.00;98860.72;6243171;22;20006;-72
2024/03/25 07:02:39;;;;;;;0.00;0.00;;;;;;;6.25;100.00;98859.06;6218376;22;20027;-73
2024/03/25 07:05:05;;;;;;;0.00;0.00;;;;;;;6.28;100.00;98861.25;6269911;22;20000;-73
2024/03/25 07:07:31;;;;;;;0.00;0.00;;;;;;;6.27;100.00;98860.44;6271559;22;20012;-73
2024/03/25 07:09:57;;;;;;;0.00;0.00;;;;;;;6.20;100.00;98845.53;6217009;22;20162;-74
2024/03/25 07:12:22;;;;;;;0.00;0.00;;;;;;;6.27;100.00;98856.91;6218041;22;20110;-73
2024/03/25 07:14:47;;;;;;;0.00;0.00;;;;;;;6.22;100.00;98865.06;6215541;22;20422;-74
2024/03/25 07:17:13;;;;;;;0.00;0.00;;;;;;;6.21;100.00;98861.53;6218616;22;20008;-73
2024/03/25 07:19:42;;;;;;;0.00;0.00;;;;;;;6.20;100.00;98859.91;6241921;22;20003;-73
2024/03/25 07:22:10;;;;;;;0.00;0.00;;;;;;;6.23;100.00;98859.34;6218535;22;20375;-75
2024/03/25 07:24:36;;;;;;;0.00;0.00;;;;;;;6.28;100.00;98847.69;6268610;22;19999;-73
2024/03/25 07:27:01;;;;;;;0.00;0.00;;;;;;;6.24;100.00;98839.25;6219557;22;20014;-73
2024/03/25 07:29:30;;;;;;;0.00;0.00;;;;;;;6.37;100.00;98846.00;6268679;22;20074;-74
2024/03/25 07:31:55;;;;;;;0.00;0.00;;;;;;;6.37;100.00;98848.72;6219253;22;20007;-74
2024/03/25 07:34:20;;;;;;;0.00;0.00;;;;;;;6.50;100.00;98862.78;6266069;22;20326;-74
2024/03/25 07:36:48;;;;;;;0.00;0.00;;;;;;;6.42;100.00;98837.84;6242423;22;20043;-74
2024/03/25 07:39:14;;;;;;;0.00;0.00;;;;;;;6.43;100.00;98842.19;6215072;22;20034;-73
2024/03/25 07:41:40;;;;;;;0.00;0.00;;;;;;;6.43;100.00;98852.25;6192806;22;20636;-73
2024/03/25 07:44:05;;;;;;;0.00;0.00;;;;;;;6.41;100.00;98852.53;6271414;22;20053;-74
2024/03/25 07:46:31;;;;;;;0.00;0.00;;;;;;;6.51;100.00;98853.56;6244731;22;20016;-75
2024/03/25 07:48:59;;;;;;;0.10;0.10;;;;;;;6.53;100.00;98837.81;6244849;22;20007;-74
2024/03/25 07:51:25;;;;;;;0.00;0.00;;;;;;;6.38;100.00;98816.94;6241752;22;20007;-74
2024/03/25 07:53:50;;;;;;;0.00;0.00;;;;;;;6.52;100.00;98838.91;6216525;22;20018;-78
2024/03/25 07:56:16;;;;;;;0.00;0.00;;;;;;;6.68;100.00;98804.34;6242195;22;20008;-75
2024/03/25 07:58:41;;;;;;;0.00;0.00;;;;;;;6.78;100.00;98807.81;6268716;22;20414;-75
2024/03/25 08:01:09;;;;;;;0.00;0.00;;;;;;;6.89;100.00;98843.06;6240866;22;20410;-74
2024/03/25 08:03:35;;;;;;;0.10;0.10;;;;;;;6.91;100.00;98825.41;6215295;22;20004;-74
2024/03/25 08:06:00;;;;;;;0.00;0.00;;;;;;;7.02;100.00;98819.91;6218142;22;20004;-74
2024/03/25 08:08:26;;;;;;;0.00;0.00;;;;;;;7.04;100.00;98823.97;6189474;22;20000;-77
2024/03/25 08:10:52;;;;;;;0.00;0.00;;;;;;;6.91;100.00;98809.09;6242976;22;20019;-76
2024/03/25 08:13:19;;;;;;;0.00;0.00;;;;;;;6.89;100.00;98832.19;6237964;22;20069;-75
2024/03/25 08:15:45;;;;;;;0.00;0.00;;;;;;;6.92;100.00;98826.19;6242154;22;20008;-73
2024/03/25 08:18:10;;;;;;;0.00;0.00;;;;;;;6.91;100.00;98814.53;6239474;22;20065;-75
2024/03/25 08:20:38;;;;;;;0.00;0.00;;;;;;;7.03;100.00;98811.47;6191074;22;20007;-74
2024/03/25 08:23:06;;;;;;;0.00;0.00;;;;;;;7.19;100.00;98803.22;6192347;22;20057;-74
2024/03/25 08:25:31;;;;;;;0.00;0.00;;;;;;;7.29;100.00;98814.00;6188302;22;20046;-75
2024/03/25 08:28:00;;;;;;;0.10;0.10;;;;;;;7.40;100.00;98820.97;6191206;22;20012;-74
2024/03/25 08:30:25;;;;;;;0.00;0.00;;;;;;;7.42;100.00;98816.06;6213449;22;20014;-75
2024/03/25 08:32:54;;;;;;;0.00;0.00;;;;;;;7.48;100.00;98806.75;6217052;22;20016;-74
2024/03/25 08:35:19;;;;;;;0.00;0.00;;;;;;;7.46;100.00;98794.53;6241738;22;20008;-75
2024/03/25 08:37:44;;;;;;;0.00;0.00;;;;;;;7.57;100.00;98803.44;6238889;22;20519;-74
2024/03/25 08:40:10;;;;;;;0.00;0.00;;;;;;;7.88;100.00;98803.16;6239614;22;20027;-75
2024/03/25 08:42:36;;;;;;;0.00;0.00;;;;;;;8.28;100.00;98790.16;6210940;22;20911;-75
2024/03/25 08:45:01;;;;;;;0.00;0.00;;;;;;;8.67;100.00;98792.72;6240713;22;20007;-74
2024/03/25 08:47:27;;;;;;;0.00;0.00;;;;;;;8.93;100.00;98799.72;6209386;22;20004;-75
2024/03/25 08:49:52;;;;;;;0.00;0.00;;;;;;;8.98;100.00;98786.00;6235062;22;20115;-75
2024/03/25 08:52:18;;;;;;;0.00;0.00;;;;;;;9.22;100.00;98781.25;6241363;22;20406;-76
2024/03/25 08:54:45;;;;;;;0.00;0.00;;;;;;;9.35;100.00;98792.53;6216762;22;20749;-75
2024/03/25 08:57:11;;;;;;;0.00;0.00;;;;;;;9.61;100.00;98765.63;6220336;22;20453;-76
2024/03/25 08:59:39;;;;;;;0.10;0.10;;;;;;;10.23;100.00;98765.25;6221456;22;20017;-76
2024/03/25 09:02:09;;;;;;;0.00;0.00;;;;;;;10.81;100.00;98777.47;6235760;22;20082;-75
2024/03/25 09:04:34;;;;;;;0.00;0.00;;;;;;;11.06;98.01;98753.38;6244417;22;20012;-76
2024/03/25 09:07:00;;;;;;;0.00;0.00;;;;;;;11.24;93.61;98765.25;6218776;22;20284;-76
2024/03/25 09:12:16;;;;;;;0.10;0.10;;;;;;;11.34;90.68;98736.84;6244646;22;20075;-76
2024/03/25 09:14:42;;;;;;;0.00;0.00;;;;;;;11.61;90.26;98763.25;6219767;22;20065;-77
2024/03/25 09:17:07;;;;;;;0.00;0.00;;;;;;;11.62;88.46;98762.13;6243325;22;20753;-76
2024/03/25 09:19:33;;;;;;;0.00;0.00;;;;;;;11.48;87.21;98780.56;6240196;22;20007;-75
2024/03/25 09:22:00;;;;;;;0.00;0.00;;;;;;;11.34;86.65;98780.63;6220022;22;20011;-75
2024/03/25 09:24:26;;;;;;;0.00;0.00;;;;;;;11.21;88.28;98771.34;6213183;22;20015;-74
2024/03/25 09:26:51;;;;;;;0.00;0.00;;;;;;;11.13;88.93;98766.63;6220517;22;20008;-76
2024/03/25 09:29:19;;;;;;;0.00;0.00;;;;;;;11.20;87.81;98775.22;6214093;22;20492;-76
2024/03/25 09:31:44;;;;;;;0.00;0.00;;;;;;;11.01;87.45;98775.41;6218898;22;20461;-76
2024/03/25 09:34:10;;;;;;;0.00;0.00;;;;;;;10.71;87.75;98768.69;6216591;22;20015;-75
2024/03/25 09:36:35;;;;;;;0.00;0.00;;;;;;;10.53;89.48;98765.78;6190397;22;20014;-75
2024/03/25 09:39:00;;;;;;;0.00;0.00;;;;;;;10.48;90.65;98760.41;6194394;22;20004;-75
2024/03/25 09:41:28;;;;;;;0.00;0.00;;;;;;;10.59;91.10;98761.81;6213620;22;20015;-75
2024/03/25 09:43:57;;;;;;;0.00;0.00;;;;;;;10.57;90.12;98764.06;6269302;22;20716;-74
2024/03/25 09:46:23;;;;;;;0.00;0.00;;;;;;;10.80;90.69;98755.91;6242802;22;20312;-75
2024/03/25 09:48:54;;;;;;;0.00;0.00;;;;;;;10.83;90.26;98720.56;6243728;22;20087;-74
2024/03/25 09:51:28;;;;;;;0.00;0.00;;;;;;;11.38;88.50;98732.34;6241931;22;20035;-74
2024/03/25 09:53:53;;;;;;;0.00;0.00;;;;;;;11.88;86.43;98742.28;6242484;22;20446;-75
2024/03/25 09:56:22;;;;;;;0.00;0.00;;;;;;;12.04;84.70;98726.25;6240951;22;20030;-75
2024/03/25 09:58:48;;;;;;;0.00;0.00;;;;;;;12.45;83.40;98727.00;6240885;22;20000;-76
2024/03/25 10:01:14;;;;;;;0.00;0.00;;;;;;;12.72;81.03;98721.22;6215591;22;20008;-75
2024/03/25 10:03:39;;;;;;;0.00;0.00;;;;;;;12.67;77.90;98737.81;6215479;22;20052;-75
2024/03/25 10:06:05;;;;;;;0.00;0.00;;;;;;;12.33;78.54;98722.16;6216255;22;20098;-75
2024/03/25 10:08:30;;;;;;;0.00;0.00;;;;;;;12.21;79.05;98720.81;6215821;22;20502;-74
2024/03/25 10:10:56;;;;;;;0.00;0.00;;;;;;;12.39;79.25;98721.66;6217013;22;20028;-74
2024/03/25 10:13:22;;;;;;;0.00;0.00;;;;;;;12.61;77.12;98711.69;6271116;22;20337;-75
2024/03/25 10:15:48;;;;;;;0.00;0.00;;;;;;;12.81;76.52;98709.47;6238898;22;20747;-76
2024/03/25 10:18:14;;;;;;;0.00;0.00;;;;;;;13.62;72.71;98710.63;6217845;22;20103;-74
2024/03/25 10:20:50;;;;;;;0.00;0.00;;;;;;;14.43;67.59;98714.28;6239008;22;20062;-75
2024/03/25 10:23:20;;;;;;;0.00;0.00;;;;;;;15.07;65.58;98695.88;6269800;22;20363;-74
2024/03/25 10:25:48;;;;;;;0.00;0.00;;;;;;;15.36;60.32;98711.47;6266415;22;20031;-74
2024/03/25 10:28:13;;;;;;;0.00;0.00;;;;;;;15.14;61.15;98706.31;6270435;22;20003;-74
2024/03/25 10:30:41;;;;;;;0.00;0.00;;;;;;;15.65;60.99;98711.63;6241330;22;20090;-75
2024/03/25 10:33:10;;;;;;;0.00;0.00;;;;;;;16.35;59.19;98685.94;6215540;22;20012;-74
2024/03/25 10:35:37;;;;;;;0.00;0.00;;;;;;;16.85;54.19;98681.09;6239185;22;20004;-73
2024/03/25 10:38:04;;;;;;;0.00;0.00;;;;;;;17.21;53.28;98669.13;6242393;22;20003;-73
2024/03/25 10:40:36;;;;;;;0.08;0.08;;;;;;;17.87;50.05;98679.88;6268767;22;20061;-73
2024/03/25 10:43:11;;;;;;;0.00;0.00;;;;;;;18.57;49.71;98673.59;6268317;22;20422;-74
2024/03/25 10:45:51;;;;;;;0.00;0.00;;;;;;;20.51;47.38;98661.63;6243648;22;20443;-75
2024/03/25 10:48:33;;;;;;;0.00;0.00;;;;;;;21.15;41.62;98661.63;6241234;22;20426;-74
2024/03/25 10:51:01;;;;;;;0.00;0.00;;;;;;;18.94;43.82;98659.38;6267553;22;20411;-74
2024/03/25 10:53:28;;;;;;;0.00;0.00;;;;;;;17.42;47.37;98648.75;6240750;22;20082;-74
2024/03/25 10:55:54;;;;;;;0.00;0.00;;;;;;;16.28;49.72;98639.66;6269431;22;20074;-74
2024/03/25 10:58:22;;;;;;;0.00;0.00;;;;;;;15.41;52.50;98616.78;6239484;22;20011;-74
2024/03/25 11:00:48;;;;;;;0.00;0.00;;;;;;;14.70;53.81;98629.66;6270336;22;20049;-74
2024/03/25 11:03:14;;;;;;;0.00;0.00;;;;;;;14.13;56.15;98631.88;6238879;22;20031;-74
2024/03/25 11:05:40;;;;;;;0.00;0.00;;;;;;;13.86;58.66;98635.91;6244127;22;20003;-74
2024/03/25 11:08:12;;;;;;;0.00;0.00;;;;;;;13.75;58.94;98621.72;6214309;22;20062;-76
2024/03/25 11:10:45;;;;;;;0.00;0.00;;;;;;;14.14;60.00;98627.16;6216854;22;20114;-75
2024/03/25 11:13:16;;;;;;;0.00;0.00;;;;;;;16.38;52.81;98611.59;6216682;22;20004;-74
2024/03/25 11:15:47;;;;;;;0.00;0.00;;;;;;;16.45;52.06;98610.97;6238863;22;20015;-75
2024/03/25 11:18:17;;;;;;;0.00;0.00;;;;;;;17.18;51.82;98622.88;6219129;22;20042;-75
2024/03/25 11:20:44;;;;;;;0.00;0.00;;;;;;;19.99;45.50;98606.59;6238760;22;20419;-74
2024/03/25 11:23:13;;;;;;;0.00;0.00;;;;;;;22.37;41.42;98620.19;6193392;22;20007;-75
2024/03/25 11:25:39;;;;;;;0.00;0.00;;;;;;;23.72;37.72;98631.31;6215085;22;20022;-74
2024/03/25 11:28:06;;;;;;;0.00;0.00;;;;;;;23.41;35.96;98616.94;6242300;22;20007;-75
2024/03/25 11:30:35;;;;;;;0.00;0.00;;;;;;;23.24;34.83;98612.94;6241915;22;20342;-74
2024/03/25 11:33:04;;;;;;;0.00;0.00;;;;;;;23.05;33.49;98614.06;6240246;22;20042;-73
2024/03/25 11:35:30;;;;;;;0.00;0.00;;;;;;;22.23;35.58;98611.72;6267386;22;20449;-75
2024/03/25 11:37:58;;;;;;;0.00;0.00;;;;;;;20.98;37.60;98587.22;6240623;22;19999;-76
2024/03/25 11:40:26;;;;;;;0.00;0.00;;;;;;;20.46;38.69;98611.97;6270178;22;20426;-75
2024/03/25 11:42:52;;;;;;;0.00;0.00;;;;;;;21.26;36.70;98609.75;6213418;22;20061;-74